Latest Weather Observations for Cabramurra

IDN60901

Issued at 10:25 pm EST Thursday 17 April 2014 (issued every 10 minutes, with the page automatically refreshed every 10 minutes)

About weather observations | Map of Canberra area stations | Latest observations for Canberra area | Other Formats
Station Details ID: 072161 Name: CABRAMURRA SMHEA AWS Lat: -35.94 Lon: 148.38 Height: 1482.4 m
Data from the previous 72 hours. | See also: Recent months at Cabramurra
Date/Time
EST
Tmp

°C
App
Tmp
°C
Dew
Point
°C
Rel
Hum
%
Delta-T

°C
Wind Press
QNH
hPa
Press
MSL
hPa
Rain
since
9 am
mm
Dir
 
Spd
km/h
Gust
km/h
Spd
kts
Gust
kts
17/10:00pm 6.4 2.9 5.5 94 0.4 SW 13 17 7 9 - - 0.0
17/09:30pm 6.7 3.5 5.0 89 0.8 SW 11 15 6 8 - - 0.0
17/09:00pm 6.8 3.4 3.8 81 1.4 S 11 13 6 7 - - 0.0
17/08:30pm 7.1 4.0 3.5 78 1.7 S 9 11 5 6 - - 0.0
17/08:00pm 7.1 4.3 3.3 77 1.8 SSW 7 9 4 5 - - 0.0
17/07:30pm 7.8 6.1 4.2 78 1.7 S 2 6 1 3 - - 0.0
17/07:00pm 7.5 5.5 4.5 81 1.4 WSW 4 6 2 3 - - 0.0
17/06:30pm 8.1 5.4 3.8 74 2.0 SSW 7 9 4 5 - - 0.0
17/06:00pm 8.2 6.9 4.0 75 2.0 S 0 0 0 0 - - 0.0
17/05:30pm 9.4 6.8 4.4 71 2.4 W 7 9 4 5 - - 0.0
17/05:00pm 10.2 7.4 5.2 71 2.5 W 9 13 5 7 - - 0.0
17/04:30pm 10.7 7.3 6.1 73 2.3 W 13 19 7 10 - - 0.0
17/04:00pm 11.5 8.2 6.2 70 2.7 W 13 17 7 9 - - 0.0
17/03:30pm 12.0 8.7 6.5 69 2.8 W 13 20 7 11 - - 0.0
17/03:00pm 11.6 7.7 5.5 66 3.1 W 15 20 8 11 - - 0.0
17/02:30pm 11.6 7.6 5.0 64 3.3 W 15 22 8 12 - - 0.0
17/02:00pm 11.5 7.1 4.9 64 3.3 WNW 17 22 9 12 - - 0.0
17/01:30pm 12.1 8.8 6.4 68 2.9 W 13 20 7 11 - - 0.0
17/01:00pm 11.5 8.4 5.4 66 3.1 WNW 11 19 6 10 - - 0.0
17/12:30pm 11.0 7.4 4.9 66 3.0 W 13 22 7 12 - - 0.0
17/12:00pm 11.2 7.4 4.0 61 3.5 W 13 19 7 10 - - 0.0
17/11:30am 11.0 7.6 4.2 63 3.3 NW 11 17 6 9 - - 0.0
17/11:00am 10.5 7.1 4.2 65 3.1 WNW 11 15 6 8 - - 0.0
17/10:30am 10.0 7.5 5.0 71 2.5 WNW 7 11 4 6 - - 0.0
17/10:00am 9.6 7.3 4.6 71 2.4 SSW 6 11 3 6 - - 0.0
17/09:30am 8.8 6.0 3.2 68 2.6 S 7 9 4 5 - - 0.0
17/09:00am 8.5 6.2 2.5 66 2.8 SSW 4 9 2 5 - - 0.0
17/08:30am 8.3 6.0 2.5 67 2.7 SE 4 11 2 6 - - 0.0
17/08:00am 7.6 5.4 3.3 74 2.0 S 4 11 2 6 - - 0.0
17/07:30am 6.7 3.9 3.0 77 1.7 E 7 11 4 6 - - 0.0
17/07:00am 5.8 1.6 1.5 74 1.9 E 13 15 7 8 - - 0.0
17/06:30am 5.5 1.3 1.4 75 1.8 E 13 15 7 8 - - 0.0
17/06:00am 5.8 1.6 1.7 75 1.8 E 13 17 7 9 - - 0.0
17/05:30am 5.7 2.3 1.8 76 1.7 E 9 13 5 7 - - 0.0
17/05:00am 6.5 3.4 1.4 70 2.3 SSE 7 11 4 6 - - 0.0
17/04:30am 6.2 3.2 1.9 74 1.9 SSE 7 9 4 5 - - 0.0
17/04:00am 6.3 3.3 2.2 75 1.8 SE 7 9 4 5 - - 0.0
17/03:30am 6.4 3.6 2.9 78 1.6 SE 7 9 4 5 - - 0.0
17/03:00am 6.1 3.3 2.9 80 1.5 ESE 7 9 4 5 - - 0.0
17/02:30am 6.1 3.0 3.6 84 1.2 SE 9 11 5 6 - - 0.0
17/02:00am 6.0 2.6 4.0 87 0.9 SSE 11 13 6 7 - - 0.0
17/01:30am 6.1 3.5 4.3 88 0.8 SSE 7 11 4 6 - - 0.0
17/01:00am 6.1 3.1 4.3 88 0.8 SSE 9 11 5 6 - - 0.0
17/12:30am 5.9 3.4 4.5 91 0.7 SSE 7 11 4 6 - - 0.0
17/12:00am 5.9 2.6 4.5 91 0.7 SSE 11 15 6 8 - - 0.0
 
Date/Time
EST
Tmp

°C
App
Tmp
°C
Dew
Point
°C
Rel
Hum
%
Delta-T

°C
Wind Press
QNH
hPa
Press
MSL
hPa
Rain
since
9 am
mm
Dir
 
Spd
km/h
Gust
km/h
Spd
kts
Gust
kts
16/11:30pm 5.8 2.9 4.9 94 0.4 S 9 13 5 7 - - 0.0
16/11:00pm 5.9 3.1 5.2 95 0.3 S 9 11 5 6 - - 0.0
16/10:30pm 5.9 3.1 5.2 95 0.3 S 9 11 5 6 - - 0.0
16/10:00pm 6.3 3.6 5.4 94 0.4 S 9 11 5 6 - - 0.0
16/09:30pm 6.2 3.3 4.8 91 0.7 S 9 11 5 6 - - 0.0
16/09:00pm 6.4 3.5 4.9 90 0.7 SSW 9 13 5 7 - - 0.0
16/08:30pm 6.5 3.6 4.7 88 0.9 S 9 11 5 6 - - 0.0
16/08:00pm 6.4 3.4 4.2 86 1.0 S 9 13 5 7 - - 0.0
16/07:30pm 6.6 3.6 4.3 85 1.1 S 9 15 5 8 - - 0.0
16/07:00pm 6.9 3.2 4.4 84 1.2 SSW 13 20 7 11 - - 0.0
16/06:30pm 6.9 4.3 4.0 82 1.4 WSW 7 11 4 6 - - 0.0
16/06:00pm 7.3 4.6 3.5 77 1.8 WSW 7 11 4 6 - - 0.0
16/05:30pm 8.8 5.2 2.8 66 2.8 WSW 11 15 6 8 - - 0.0
16/05:00pm 9.6 6.5 3.4 65 2.9 WNW 9 15 5 8 - - 0.0
16/04:30pm 9.7 5.8 3.4 65 3.0 W 13 19 7 10 - - 0.0
16/04:00pm 10.9 7.1 3.7 61 3.5 W 13 22 7 12 - - 0.0
16/03:30pm 11.7 7.7 4.7 62 3.5 W 15 24 8 13 - - 0.0
16/03:00pm 11.9 8.2 6.4 69 2.8 W 15 26 8 14 - - 0.0
16/02:30pm 11.0 7.1 5.3 68 2.8 W 15 20 8 11 - - 0.0
16/02:00pm 10.7 6.7 4.8 67 2.9 W 15 20 8 11 - - 0.0
16/01:30pm 9.8 6.2 4.8 71 2.5 WNW 13 19 7 10 - - 0.0
16/01:00pm 9.6 5.4 5.6 76 2.0 WNW 17 28 9 15 - - 0.0
16/12:30pm 9.0 5.4 4.8 75 2.0 W 13 20 7 11 - - 0.0
16/12:00pm 10.0 6.0 5.0 71 2.5 W 15 24 8 13 - - 0.0
16/11:30am 10.9 7.5 6.1 72 2.4 W 13 20 7 11 - - 0.0
16/11:00am 10.4 7.8 6.0 74 2.2 W 9 17 5 9 - - 0.0
16/10:30am 9.7 7.0 5.5 75 2.1 NW 9 13 5 7 - - 0.0
16/10:00am 9.3 5.7 4.9 74 2.2 SW 13 20 7 11 - - 0.0
16/09:30am 8.9 5.3 5.1 77 1.9 SSW 13 15 7 8 - - 0.0
16/09:00am 8.1 4.7 4.1 76 1.9 SSW 11 15 6 8 - - 0.0
16/08:30am 7.1 3.8 4.4 83 1.3 S 11 13 6 7 - - 0.0
16/08:00am 5.9 2.0 3.2 83 1.2 SSE 13 17 7 9 - - 0.0
16/07:30am 5.4 1.5 3.4 87 0.9 SE 13 17 7 9 - - 0.0
16/07:00am 4.2 -0.1 3.5 95 0.3 SE 15 17 8 9 - - 0.0
16/06:30am 3.8 -0.5 3.1 95 0.3 ESE 15 19 8 10 - - 0.0
16/06:00am 4.3 0.4 3.3 93 0.5 SE 13 17 7 9 - - 0.0
16/05:30am 4.0 -0.3 3.3 95 0.3 ESE 15 22 8 12 - - 0.0
16/05:00am 3.9 -0.8 3.3 96 0.3 ESE 17 22 9 12 - - 0.0
16/04:30am 3.9 -1.1 3.5 97 0.2 ESE 19 28 10 15 - - 0.0
16/04:00am 3.9 -1.1 3.5 97 0.2 ESE 19 32 10 17 - - 0.0
16/03:30am 3.8 -0.9 3.2 96 0.3 SE 17 28 9 15 - - 0.0
16/03:00am 4.1 -2.3 3.4 95 0.3 ESE 26 35 14 19 - - 0.0
16/02:30am 4.4 -1.2 3.5 94 0.4 ESE 22 35 12 19 - - 0.0
16/02:00am 4.6 -1.3 3.9 95 0.3 ESE 24 33 13 18 - - 0.0
16/01:30am 4.9 -1.4 4.0 94 0.4 E 26 43 14 23 - - 0.0
16/01:00am 4.8 -1.1 3.9 94 0.4 ESE 24 33 13 18 - - 0.0
16/12:30am 5.1 -1.6 3.9 92 0.6 ESE 28 39 15 21 - - 0.0
16/12:00am 5.1 -1.9 3.9 92 0.6 E 30 43 16 23 - - 0.0
 
Date/Time
EST
Tmp

°C
App
Tmp
°C
Dew
Point
°C
Rel
Hum
%
Delta-T

°C
Wind Press
QNH
hPa
Press
MSL
hPa
Rain
since
9 am
mm
Dir
 
Spd
km/h
Gust
km/h
Spd
kts
Gust
kts
15/11:30pm 5.1 -1.9 3.9 92 0.6 E 30 43 16 23 - - 0.0
15/11:00pm 5.2 -1.8 4.2 93 0.5 E 30 39 16 21 - - 0.0
15/10:30pm 5.2 -2.0 4.8 97 0.2 ESE 32 46 17 25 - - 0.0
15/10:00pm 5.7 -0.4 5.0 95 0.3 ESE 26 37 14 20 - - 0.0
15/09:30pm 6.0 -0.4 5.3 95 0.3 ESE 28 39 15 21 - - 0.0
15/09:00pm 6.2 -1.1 5.6 96 0.3 ESE 33 43 18 23 - - 0.0
15/08:30pm 6.4 -0.8 5.0 91 0.7 ESE 32 41 17 22 - - 0.0
15/08:00pm 6.6 -0.6 5.1 90 0.7 E 32 41 17 22 - - 0.0
15/07:30pm 6.8 -0.3 5.4 91 0.7 ESE 32 43 17 23 - - 0.0
15/07:00pm 7.2 0.1 5.5 89 0.8 ESE 32 41 17 22 - - 0.0
15/06:30pm 7.7 1.4 5.7 87 1.0 E 28 35 15 19 - - 0.0
15/06:00pm 8.1 2.5 5.6 84 1.2 E 24 32 13 17 - - 0.0
15/05:30pm 8.7 3.4 5.1 78 1.8 E 22 28 12 15 - - 0.0
15/05:00pm 9.4 4.2 5.4 76 2.0 E 22 28 12 15 - - 0.0
15/04:30pm 10.3 6.3 4.7 68 2.7 E 15 28 8 15 - - 0.0
15/04:00pm 10.0 5.2 4.8 70 2.6 E 19 26 10 14 - - 0.0
15/03:30pm 11.1 7.0 4.3 63 3.3 SE 15 24 8 13 - - 0.0
15/03:00pm 11.0 6.2 4.5 64 3.2 E 19 28 10 15 - - 0.0
15/02:30pm 10.1 4.9 3.8 65 3.0 E 20 28 11 15 - - 0.0
15/02:00pm 10.6 6.1 4.3 65 3.1 SE 17 28 9 15 - - 0.0
15/01:30pm 10.3 6.1 4.0 65 3.0 SE 15 28 8 15 - - 0.0
15/01:00pm 11.4 7.2 5.7 68 2.9 ESE 17 26 9 14 - - 0.0
15/12:30pm 10.9 7.0 5.2 68 2.8 SSE 15 26 8 14 - - 0.0
15/12:00pm 10.3 5.9 4.5 67 2.8 SE 17 26 9 14 - - 0.0
15/11:30am 9.8 5.3 4.2 68 2.7 ESE 17 28 9 15 - - 0.0
15/11:00am 10.4 5.7 5.0 69 2.7 ESE 19 32 10 17 - - 0.0
15/10:30am 9.4 3.9 3.8 68 2.7 ESE 22 32 12 17 - - 0.0
15/10:00am 8.7 1.2 3.5 70 2.5 ESE 32 48 17 26 - - 0.0
15/09:30am 7.8 -0.2 3.8 76 1.9 ESE 35 50 19 27 - - 0.0
15/09:00am 6.8 -1.7 3.4 79 1.6 ESE 37 48 20 26 - - 0.0
15/08:50am 6.6 -1.9 3.4 80 1.5 ESE 37 56 20 30 - - 0.0
15/08:30am 6.0 -3.4 2.6 79 1.5 ESE 41 54 22 29 - - 0.0
15/08:09am 5.4 -4.4 2.4 81 1.3 ESE 43 61 23 33 - - 0.0
15/08:00am 5.2 -4.6 2.2 81 1.3 ESE 43 56 23 30 - - 0.0
15/07:30am 4.6 -5.4 2.0 83 1.1 ESE 44 56 24 30 - - 0.0
15/07:00am 3.7 -5.0 1.7 87 0.9 ESE 37 48 20 26 - - 0.0
15/06:30am 3.1 -4.7 1.5 89 0.7 ESE 32 44 17 24 - - 0.0
15/06:00am 3.3 -2.8 0.5 82 1.2 SE 22 32 12 17 - - 0.0
15/05:30am 2.3 -4.4 1.6 95 0.3 E 26 35 14 19 - - 0.0
15/05:00am 2.6 -4.0 2.2 97 0.2 E 26 39 14 21 - - 0.0
15/04:30am 2.7 -2.7 2.6 99 0.0 ESE 20 35 11 19 - - 0.0
15/04:00am 2.9 -2.4 2.8 99 0.0 ESE 20 32 11 17 - - 0.0
15/03:30am 3.0 -2.1 2.9 99 0.0 ESE 19 28 10 15 - - 0.0
15/03:00am 3.0 -2.3 2.9 99 0.0 ESE 20 30 11 16 - - 0.0
15/02:30am 3.2 -1.9 3.1 99 0.0 ESE 19 28 10 15 - - 0.0
15/02:00am 3.3 -2.8 2.9 97 0.2 E 24 37 13 20 - - 0.0
15/01:30am 3.5 -1.7 3.4 99 0.0 E 20 30 11 16 - - 0.0
15/01:00am 3.6 -1.7 3.2 97 0.2 E 20 32 11 17 - - 0.0
15/12:30am 3.9 -2.2 3.0 94 0.4 E 24 33 13 18 - - 0.0
15/12:00am 4.1 -1.9 3.2 94 0.4 E 24 32 13 17 - - 0.0
 
Date/Time
EST
Tmp

°C
App
Tmp
°C
Dew
Point
°C
Rel
Hum
%
Delta-T

°C
Wind Press
QNH
hPa
Press
MSL
hPa
Rain
since
9 am
mm
Dir
 
Spd
km/h
Gust
km/h
Spd
kts
Gust
kts
14/11:30pm 4.0 -2.7 3.4 96 0.3 E 28 37 15 20 - - 0.0
14/11:00pm 4.1 -1.9 3.4 95 0.3 ESE 24 33 13 18 - - 0.0
14/10:30pm 4.4 -1.9 3.5 94 0.4 E 26 35 14 19 - - 0.0

Latest Capital City Observations: Canberra | Sydney | Melbourne | Brisbane | Adelaide | Perth | Hobart | Darwin

Other Formats:

Comma delimited format used in spreadsheet applications
http://www.bom.gov.au/fwo/IDN60903/IDN60903.95916.axf

JavaScript Object Notation format (JSON) in row-major order
http://www.bom.gov.au/fwo/IDN60903/IDN60903.95916.json